Ana Sayfa
METAR-TAF:

METAR-TAF

Havaalanları :

Kolda, Senegal

Enlem: 12-53N, Boylam: 014-58W, yükseklik: 10 m

Güncel hava durumu gözlemi

Rapor saat 03:00 UTC de 30 dakika önce yapıldı.
Sakin rüzgar
Sıcaklık 20°C
Nem 68%
Basınç 1009 hPa
Görüş mesafesi: 8000 m

METAR: GOGK 190300Z 00000KT 8000 NSC 20/14 Q1009

Saat: 03:30 (03:30 UTC)


TAF: eksik

4.000'den fazla havaalanı için hava durumu gözlemleri ve tahminleri (METAR ve TAF raporları).

Kullanılabilir istasyonlar harita üzerinde sarı ve kırmızı noktalarla gösterilir.

İstasyonun adını görmek için fareyi noktanın üzerinde gezdirin.

Sonrasında hava gözlem ve tahminlerini görmek için tıklayın.

Haritayı değiştirmek için: yaklaştırmak için siyah artı işaretli yeşil düğmeye ve uzaklaştırmak için de eksi işaretli düğmeye hızla tıklayın; bitişik haritalar için yeşil okları kullanın.


METAR-TAF: